• Join FlightAware (Why Join?)
  • Login
  • US Flag 
04:55AM EDT


 

Airport Tracker/Info


-or-


 

Live Flight TrackerFlight Track Log ✈ UPS1121 ✈ 02-May-2013 ✈ KALB - KBDL

Flight Track Log - Related Links

Times and Time Zones

All times are in EDT time to prevent confusion due to time zone crossing. See the UPS1121 flight status page for this flight to view local times or setup timezone preferences in your user account.

Time Position Orientation Groundspeed Altitude Reporting Facility
EDT Latitude Longitude Course Direction KTS MPH feet Rate Location/Type
08:41PM 42.7361 -73.8083 149° Southeast 152 175 1,400  Level Boston Center
08:42PM 42.6928 -73.7733 149° Southeast 193 222 3,000 2,460 Climbing Boston Center
08:43PM 42.6417 -73.6906 130° Southeast 250 288 7,300 3,360 Climbing Boston Center
08:44PM 42.5861 -73.6019 130° Southeast 277 319 10,700 1,800 Climbing Boston Center
08:45PM 42.5308 -73.5108 129° Southeast 327 376 10,900 180 Climbing Boston Center
08:46PM 42.4817 -73.4311 130° Southeast 354 407 11,000  Climbing Boston Center
08:46PM 42.4794 -73.4283 137° Southeast 349 402 10,900  Descending Boston Center
08:47PM 42.4114 -73.3372 135° Southeast 355 409 11,000 60 Climbing Boston Center
08:47PM 42.3969 -73.3144 131° Southeast 356 410 11,000  Level Boston Center
08:48PM 42.3433 -73.2406 134° Southeast 355 409 11,000  Level Boston Center
08:48PM 42.3311 -73.1983 111° Southeast 351 404 11,000  Level Boston Center
08:49PM 42.3069 -73.0969 108° East 331 381 11,000 -660 Level Boston Center
08:50PM 42.2803 -73.0069 112° Southeast 304 350 9,900 -1,500 Descending Boston Center
08:51PM 42.2536 -72.8944 108° East 289 333 8,300 -1,500 Descending Boston Center
08:52PM 42.2311 -72.7933 107° East 283 326 6,900 -1,380 Descending Boston Center
08:53PM 42.2022 -72.6978 112° Southeast 267 307 5,400 -1,500 Descending Boston Center
08:54PM 42.1481 -72.6306 137° Southeast 256 295 3,800 -1,200 Descending Boston Center
08:55PM 42.1003 -72.5633 134° Southeast 246 283 3,000 -540 Descending Boston Center
08:56PM 42.0503 -72.5575 175° South 179 206 2,700 -660 Descending Boston Center
08:57PM 42.0022 -72.6050 216° Southwest 181 208 1,700 -960 Descending Boston Center
08:58PM 41.9772 -72.6356 222° Southwest 168 193 1,000 -780 Descending Boston Center
08:59PM 41.9500 -72.6717 225° Southwest 140 161 300 -720 Descending Boston Center
09:04PM 41.9392 -72.6834 45° Northeast  Level Estimated
09:11PM 41.9333 -72.6833 45° Northeast  Level FlightAware Approximate
09:12PM 41.9392 -72.6834 45° Northeast  Level Estimated
09:13PM 41.9333 -72.6833 45° Northeast  Level FlightAware Approximate